sensor_id;sensor_type;location;lat;lon;timestamp;temperature;humidity
70676;DHT22;59069;52.242;20.900;2023-07-29T00:01:43;17.45;91.10
70676;DHT22;59069;52.242;20.900;2023-07-29T00:04:09;17.46;91.10
70676;DHT22;59069;52.242;20.900;2023-07-29T00:06:35;17.43;91.13
70676;DHT22;59069;52.242;20.900;2023-07-29T00:09:01;17.42;91.22
70676;DHT22;59069;52.242;20.900;2023-07-29T00:11:26;17.40;91.31
70676;DHT22;59069;52.242;20.900;2023-07-29T00:13:52;17.42;91.37
70676;DHT22;59069;52.242;20.900;2023-07-29T00:16:18;17.40;91.42
70676;DHT22;59069;52.242;20.900;2023-07-29T00:18:47;17.40;91.45
70676;DHT22;59069;52.242;20.900;2023-07-29T00:21:12;17.42;91.46
70676;DHT22;59069;52.242;20.900;2023-07-29T00:23:37;17.45;91.49
70676;DHT22;59069;52.242;20.900;2023-07-29T00:26:03;17.42;91.49
70676;DHT22;59069;52.242;20.900;2023-07-29T00:28:28;17.42;91.52
70676;DHT22;59069;52.242;20.900;2023-07-29T00:30:53;17.38;91.55
70676;DHT22;59069;52.242;20.900;2023-07-29T00:33:19;17.39;91.58
70676;DHT22;59069;52.242;20.900;2023-07-29T00:35:45;17.36;91.48
70676;DHT22;59069;52.242;20.900;2023-07-29T00:38:11;17.35;91.63
70676;DHT22;59069;52.242;20.900;2023-07-29T00:40:37;17.32;91.65
70676;DHT22;59069;52.242;20.900;2023-07-29T00:43:02;17.32;91.62
70676;DHT22;59069;52.242;20.900;2023-07-29T00:45:29;17.29;91.55
70676;DHT22;59069;52.242;20.900;2023-07-29T00:47:55;17.30;91.47
70676;DHT22;59069;52.242;20.900;2023-07-29T00:50:21;17.28;91.39
70676;DHT22;59069;52.242;20.900;2023-07-29T00:52:49;17.26;91.40
70676;DHT22;59069;52.242;20.900;2023-07-29T00:55:14;17.26;91.40
70676;DHT22;59069;52.242;20.900;2023-07-29T00:57:40;17.22;91.43
70676;DHT22;59069;52.242;20.900;2023-07-29T01:00:07;17.23;91.45
70676;DHT22;59069;52.242;20.900;2023-07-29T01:02:34;17.22;91.44
70676;DHT22;59069;52.242;20.900;2023-07-29T01:05:00;17.20;91.40
70676;DHT22;59069;52.242;20.900;2023-07-29T01:07:30;17.19;91.36
70676;DHT22;59069;52.242;20.900;2023-07-29T01:10:10;17.19;91.45
70676;DHT22;59069;52.242;20.900;2023-07-29T01:12:48;17.19;91.45
70676;DHT22;59069;52.242;20.900;2023-07-29T01:15:55;17.16;91.38
70676;DHT22;59069;52.242;20.900;2023-07-29T01:18:19;17.15;91.40
70676;DHT22;59069;52.242;20.900;2023-07-29T01:20:46;17.15;91.45
70676;DHT22;59069;52.242;20.900;2023-07-29T01:23:12;17.15;91.55
70676;DHT22;59069;52.242;20.900;2023-07-29T01:25:38;17.14;91.64
70676;DHT22;59069;52.242;20.900;2023-07-29T01:28:03;17.12;91.74
70676;DHT22;59069;52.242;20.900;2023-07-29T01:30:33;17.12;91.76
70676;DHT22;59069;52.242;20.900;2023-07-29T01:33:25;17.12;91.71
70676;DHT22;59069;52.242;20.900;2023-07-29T01:35:57;17.08;91.80
70676;DHT22;59069;52.242;20.900;2023-07-29T01:38:29;17.04;92.08
70676;DHT22;59069;52.242;20.900;2023-07-29T01:40:58;17.04;92.24
70676;DHT22;59069;52.242;20.900;2023-07-29T01:43:24;17.05;92.36
70676;DHT22;59069;52.242;20.900;2023-07-29T01:45:51;17.07;92.44
70676;DHT22;59069;52.242;20.900;2023-07-29T01:48:16;17.07;92.36
70676;DHT22;59069;52.242;20.900;2023-07-29T01:50:42;17.07;92.15
70676;DHT22;59069;52.242;20.900;2023-07-29T01:53:08;17.04;92.16
70676;DHT22;59069;52.242;20.900;2023-07-29T01:55:33;17.02;92.20
70676;DHT22;59069;52.242;20.900;2023-07-29T01:57:58;16.99;92.11
70676;DHT22;59069;52.242;20.900;2023-07-29T02:00:24;17.01;92.01
70676;DHT22;59069;52.242;20.900;2023-07-29T02:02:49;16.98;92.01
70676;DHT22;59069;52.242;20.900;2023-07-29T02:05:15;16.99;92.06
70676;DHT22;59069;52.242;20.900;2023-07-29T02:07:40;16.96;91.98
70676;DHT22;59069;52.242;20.900;2023-07-29T02:10:06;16.91;91.99
70676;DHT22;59069;52.242;20.900;2023-07-29T02:12:32;16.89;92.12
70676;DHT22;59069;52.242;20.900;2023-07-29T02:14:58;16.87;92.09
70676;DHT22;59069;52.242;20.900;2023-07-29T02:17:23;16.85;92.10
70676;DHT22;59069;52.242;20.900;2023-07-29T02:19:48;16.85;92.14
70676;DHT22;59069;52.242;20.900;2023-07-29T02:22:16;16.85;92.29
70676;DHT22;59069;52.242;20.900;2023-07-29T02:24:42;16.79;92.32
70676;DHT22;59069;52.242;20.900;2023-07-29T02:27:07;16.77;92.27
70676;DHT22;59069;52.242;20.900;2023-07-29T02:29:33;16.72;92.41
70676;DHT22;59069;52.242;20.900;2023-07-29T02:31:59;16.70;92.50
70676;DHT22;59069;52.242;20.900;2023-07-29T02:34:24;16.64;92.57
70676;DHT22;59069;52.242;20.900;2023-07-29T02:36:50;16.60;92.61
70676;DHT22;59069;52.242;20.900;2023-07-29T02:39:15;16.61;92.67
70676;DHT22;59069;52.242;20.900;2023-07-29T02:41:41;16.57;92.71
70676;DHT22;59069;52.242;20.900;2023-07-29T02:44:06;16.54;92.82
70676;DHT22;59069;52.242;20.900;2023-07-29T02:46:32;16.50;92.93
70676;DHT22;59069;52.242;20.900;2023-07-29T02:48:57;16.48;93.05
70676;DHT22;59069;52.242;20.900;2023-07-29T02:51:23;16.48;93.18
70676;DHT22;59069;52.242;20.900;2023-07-29T02:53:48;16.50;93.26
70676;DHT22;59069;52.242;20.900;2023-07-29T02:56:14;16.50;93.15
70676;DHT22;59069;52.242;20.900;2023-07-29T02:58:39;16.44;93.08
70676;DHT22;59069;52.242;20.900;2023-07-29T03:01:05;16.44;93.09
70676;DHT22;59069;52.242;20.900;2023-07-29T03:03:32;16.41;93.17
70676;DHT22;59069;52.242;20.900;2023-07-29T03:06:09;16.40;93.30
70676;DHT22;59069;52.242;20.900;2023-07-29T03:08:35;16.40;93.48
70676;DHT22;59069;52.242;20.900;2023-07-29T03:11:08;16.41;93.48
70676;DHT22;59069;52.242;20.900;2023-07-29T03:13:34;16.40;93.48
70676;DHT22;59069;52.242;20.900;2023-07-29T03:16:06;16.40;93.51
70676;DHT22;59069;52.242;20.900;2023-07-29T03:18:32;16.38;93.44
70676;DHT22;59069;52.242;20.900;2023-07-29T03:20:57;16.36;93.40
70676;DHT22;59069;52.242;20.900;2023-07-29T03:23:23;16.34;93.25
70676;DHT22;59069;52.242;20.900;2023-07-29T03:25:49;16.27;93.20
70676;DHT22;59069;52.242;20.900;2023-07-29T03:28:16;16.27;93.27
70676;DHT22;59069;52.242;20.900;2023-07-29T03:30:42;16.23;93.27
70676;DHT22;59069;52.242;20.900;2023-07-29T03:33:07;16.20;93.27
70676;DHT22;59069;52.242;20.900;2023-07-29T03:35:33;16.14;93.40
70676;DHT22;59069;52.242;20.900;2023-07-29T03:37:58;16.14;93.42
70676;DHT22;59069;52.242;20.900;2023-07-29T03:40:23;16.14;93.47
70676;DHT22;59069;52.242;20.900;2023-07-29T03:42:49;16.13;93.59
70676;DHT22;59069;52.242;20.900;2023-07-29T03:45:14;16.12;93.59
70676;DHT22;59069;52.242;20.900;2023-07-29T03:47:40;16.10;93.80
70676;DHT22;59069;52.242;20.900;2023-07-29T03:50:05;16.13;93.96
70676;DHT22;59069;52.242;20.900;2023-07-29T03:52:31;16.10;93.98
70676;DHT22;59069;52.242;20.900;2023-07-29T03:54:56;16.14;93.94
70676;DHT22;59069;52.242;20.900;2023-07-29T03:57:22;16.14;93.76
70676;DHT22;59069;52.242;20.900;2023-07-29T03:59:47;16.13;93.69
70676;DHT22;59069;52.242;20.900;2023-07-29T04:02:12;16.12;93.72
70676;DHT22;59069;52.242;20.900;2023-07-29T04:04:38;16.09;93.74
70676;DHT22;59069;52.242;20.900;2023-07-29T04:07:03;16.09;93.71
70676;DHT22;59069;52.242;20.900;2023-07-29T04:09:29;16.07;93.78
70676;DHT22;59069;52.242;20.900;2023-07-29T04:11:54;16.10;93.85
70676;DHT22;59069;52.242;20.900;2023-07-29T04:14:20;16.12;93.76
70676;DHT22;59069;52.242;20.900;2023-07-29T04:16:45;16.09;93.72
70676;DHT22;59069;52.242;20.900;2023-07-29T04:19:10;16.09;93.65
70676;DHT22;59069;52.242;20.900;2023-07-29T04:21:36;16.09;93.73
70676;DHT22;59069;52.242;20.900;2023-07-29T04:24:02;16.09;93.77
70676;DHT22;59069;52.242;20.900;2023-07-29T04:26:27;16.12;93.80
70676;DHT22;59069;52.242;20.900;2023-07-29T04:28:52;16.12;93.66
70676;DHT22;59069;52.242;20.900;2023-07-29T04:31:18;16.06;93.59
70676;DHT22;59069;52.242;20.900;2023-07-29T04:33:43;16.10;93.88
70676;DHT22;59069;52.242;20.900;2023-07-29T04:36:09;16.10;93.96
70676;DHT22;59069;52.242;20.900;2023-07-29T04:38:36;16.16;93.98
70676;DHT22;59069;52.242;20.900;2023-07-29T04:41:02;16.17;93.85
70676;DHT22;59069;52.242;20.900;2023-07-29T04:43:30;16.17;93.58
70676;DHT22;59069;52.242;20.900;2023-07-29T04:45:55;16.17;93.62
70676;DHT22;59069;52.242;20.900;2023-07-29T04:48:20;16.19;93.67
70676;DHT22;59069;52.242;20.900;2023-07-29T04:50:46;16.24;93.84
70676;DHT22;59069;52.242;20.900;2023-07-29T04:53:11;16.27;93.87
70676;DHT22;59069;52.242;20.900;2023-07-29T04:55:36;16.31;93.84
70676;DHT22;59069;52.242;20.900;2023-07-29T04:58:02;16.31;93.65
70676;DHT22;59069;52.242;20.900;2023-07-29T05:00:27;16.33;93.53
70676;DHT22;59069;52.242;20.900;2023-07-29T05:02:53;16.37;93.45
70676;DHT22;59069;52.242;20.900;2023-07-29T05:05:18;16.37;93.30
70676;DHT22;59069;52.242;20.900;2023-07-29T05:07:43;16.40;93.22
70676;DHT22;59069;52.242;20.900;2023-07-29T05:10:09;16.41;93.16
70676;DHT22;59069;52.242;20.900;2023-07-29T05:12:34;16.41;92.94
70676;DHT22;59069;52.242;20.900;2023-07-29T05:14:59;16.38;92.90
70676;DHT22;59069;52.242;20.900;2023-07-29T05:17:25;16.40;92.95
70676;DHT22;59069;52.242;20.900;2023-07-29T05:19:50;16.46;93.18
70676;DHT22;59069;52.242;20.900;2023-07-29T05:22:16;16.53;93.38
70676;DHT22;59069;52.242;20.900;2023-07-29T05:24:41;16.64;93.38
70676;DHT22;59069;52.242;20.900;2023-07-29T05:27:06;16.71;93.15
70676;DHT22;59069;52.242;20.900;2023-07-29T05:29:33;16.79;93.02
70676;DHT22;59069;52.242;20.900;2023-07-29T05:31:59;16.84;92.63
70676;DHT22;59069;52.242;20.900;2023-07-29T05:34:24;16.91;92.56
70676;DHT22;59069;52.242;20.900;2023-07-29T05:36:49;16.99;92.54
70676;DHT22;59069;52.242;20.900;2023-07-29T05:39:15;17.05;92.49
70676;DHT22;59069;52.242;20.900;2023-07-29T05:41:40;17.11;92.17
70676;DHT22;59069;52.242;20.900;2023-07-29T05:44:05;17.16;91.89
70676;DHT22;59069;52.242;20.900;2023-07-29T05:46:31;17.23;91.66
70676;DHT22;59069;52.242;20.900;2023-07-29T05:48:56;17.29;91.36
70676;DHT22;59069;52.242;20.900;2023-07-29T05:51:22;17.33;91.06
70676;DHT22;59069;52.242;20.900;2023-07-29T05:53:47;17.36;90.92
70676;DHT22;59069;52.242;20.900;2023-07-29T05:56:13;17.42;90.69
70676;DHT22;59069;52.242;20.900;2023-07-29T05:58:38;17.47;90.50
70676;DHT22;59069;52.242;20.900;2023-07-29T06:01:04;17.50;90.36
70676;DHT22;59069;52.242;20.900;2023-07-29T06:03:29;17.52;90.22
70676;DHT22;59069;52.242;20.900;2023-07-29T06:05:54;17.59;89.74
70676;DHT22;59069;52.242;20.900;2023-07-29T06:08:20;17.60;89.67
70676;DHT22;59069;52.242;20.900;2023-07-29T06:10:45;17.59;89.15
70676;DHT22;59069;52.242;20.900;2023-07-29T06:13:10;17.62;89.07
70676;DHT22;59069;52.242;20.900;2023-07-29T06:15:36;17.63;89.12
70676;DHT22;59069;52.242;20.900;2023-07-29T06:18:01;17.66;88.79
70676;DHT22;59069;52.242;20.900;2023-07-29T06:20:27;17.71;88.45
70676;DHT22;59069;52.242;20.900;2023-07-29T06:22:52;17.76;88.22
70676;DHT22;59069;52.242;20.900;2023-07-29T06:25:17;17.77;88.31
70676;DHT22;59069;52.242;20.900;2023-07-29T06:27:43;17.81;88.45
70676;DHT22;59069;52.242;20.900;2023-07-29T06:30:08;17.87;88.01
70676;DHT22;59069;52.242;20.900;2023-07-29T06:32:34;17.89;87.76
70676;DHT22;59069;52.242;20.900;2023-07-29T06:34:59;17.89;87.52
70676;DHT22;59069;52.242;20.900;2023-07-29T06:37:25;17.93;87.52
70676;DHT22;59069;52.242;20.900;2023-07-29T06:39:50;17.96;87.40
70676;DHT22;59069;52.242;20.900;2023-07-29T06:42:16;18.04;87.29
70676;DHT22;59069;52.242;20.900;2023-07-29T06:44:41;18.11;87.19
70676;DHT22;59069;52.242;20.900;2023-07-29T06:47:07;18.22;86.99
70676;DHT22;59069;52.242;20.900;2023-07-29T06:49:32;18.30;86.65
70676;DHT22;59069;52.242;20.900;2023-07-29T06:51:57;18.44;86.14
70676;DHT22;59069;52.242;20.900;2023-07-29T06:54:26;18.55;85.83
70676;DHT22;59069;52.242;20.900;2023-07-29T06:56:52;18.65;85.52
70676;DHT22;59069;52.242;20.900;2023-07-29T06:59:17;18.69;85.05
70676;DHT22;59069;52.242;20.900;2023-07-29T07:01:42;18.82;84.76
70676;DHT22;59069;52.242;20.900;2023-07-29T07:04:08;18.92;84.58
70676;DHT22;59069;52.242;20.900;2023-07-29T07:06:33;19.09;84.98
70676;DHT22;59069;52.242;20.900;2023-07-29T07:08:58;19.30;85.41
70676;DHT22;59069;52.242;20.900;2023-07-29T07:11:24;19.46;84.75
70676;DHT22;59069;52.242;20.900;2023-07-29T07:13:49;19.64;84.07
70676;DHT22;59069;52.242;20.900;2023-07-29T07:16:14;19.75;82.95
70676;DHT22;59069;52.242;20.900;2023-07-29T07:18:40;19.91;82.34
70676;DHT22;59069;52.242;20.900;2023-07-29T07:21:06;19.91;81.32
70676;DHT22;59069;52.242;20.900;2023-07-29T07:23:31;19.94;80.34
70676;DHT22;59069;52.242;20.900;2023-07-29T07:25:56;19.89;79.39
70676;DHT22;59069;52.242;20.900;2023-07-29T07:28:22;19.91;79.29
70676;DHT22;59069;52.242;20.900;2023-07-29T07:30:47;20.04;79.72
70676;DHT22;59069;52.242;20.900;2023-07-29T07:33:12;20.18;80.37
70676;DHT22;59069;52.242;20.900;2023-07-29T07:35:38;20.37;80.07
70676;DHT22;59069;52.242;20.900;2023-07-29T07:38:03;20.60;79.73
70676;DHT22;59069;52.242;20.900;2023-07-29T07:40:30;20.76;78.80
70676;DHT22;59069;52.242;20.900;2023-07-29T07:42:56;20.90;77.60
70676;DHT22;59069;52.242;20.900;2023-07-29T07:45:21;21.05;77.59
70676;DHT22;59069;52.242;20.900;2023-07-29T07:47:46;21.18;76.56
70676;DHT22;59069;52.242;20.900;2023-07-29T07:50:12;21.31;76.00
70676;DHT22;59069;52.242;20.900;2023-07-29T07:52:39;21.37;74.69
70676;DHT22;59069;52.242;20.900;2023-07-29T07:55:04;21.34;73.83
70676;DHT22;59069;52.242;20.900;2023-07-29T07:57:30;21.35;74.38
70676;DHT22;59069;52.242;20.900;2023-07-29T07:59:56;21.44;74.80
70676;DHT22;59069;52.242;20.900;2023-07-29T08:02:21;21.56;74.91
70676;DHT22;59069;52.242;20.900;2023-07-29T08:04:46;21.74;73.74
70676;DHT22;59069;52.242;20.900;2023-07-29T08:07:12;21.86;73.50
70676;DHT22;59069;52.242;20.900;2023-07-29T08:09:38;21.96;72.45
70676;DHT22;59069;52.242;20.900;2023-07-29T08:12:04;22.00;71.07
70676;DHT22;59069;52.242;20.900;2023-07-29T08:14:32;21.99;70.55
70676;DHT22;59069;52.242;20.900;2023-07-29T08:16:58;21.96;69.96
70676;DHT22;59069;52.242;20.900;2023-07-29T08:19:23;22.00;70.40
70676;DHT22;59069;52.242;20.900;2023-07-29T08:21:49;22.10;70.28
70676;DHT22;59069;52.242;20.900;2023-07-29T08:24:14;22.24;69.35
70676;DHT22;59069;52.242;20.900;2023-07-29T08:26:39;22.41;68.98
70676;DHT22;59069;52.242;20.900;2023-07-29T08:29:05;22.58;68.34
70676;DHT22;59069;52.242;20.900;2023-07-29T08:31:33;22.72;66.58
70676;DHT22;59069;52.242;20.900;2023-07-29T08:33:59;22.90;66.73
70676;DHT22;59069;52.242;20.900;2023-07-29T08:36:25;23.12;65.84
70676;DHT22;59069;52.242;20.900;2023-07-29T08:38:50;23.35;64.83
70676;DHT22;59069;52.242;20.900;2023-07-29T08:41:24;23.46;63.32
70676;DHT22;59069;52.242;20.900;2023-07-29T08:44:01;23.49;62.63
70676;DHT22;59069;52.242;20.900;2023-07-29T08:46:28;23.59;62.22
70676;DHT22;59069;52.242;20.900;2023-07-29T08:48:54;23.71;61.98
70676;DHT22;59069;52.242;20.900;2023-07-29T08:51:21;23.88;61.66
70676;DHT22;59069;52.242;20.900;2023-07-29T08:53:48;24.04;60.91
70676;DHT22;59069;52.242;20.900;2023-07-29T08:56:15;24.14;60.75
70676;DHT22;59069;52.242;20.900;2023-07-29T08:58:41;24.22;59.63
70676;DHT22;59069;52.242;20.900;2023-07-29T09:01:07;24.18;58.29
70676;DHT22;59069;52.242;20.900;2023-07-29T09:03:32;24.01;57.63
70676;DHT22;59069;52.242;20.900;2023-07-29T09:05:58;24.03;58.52
70676;DHT22;59069;52.242;20.900;2023-07-29T09:08:27;24.08;58.16
70676;DHT22;59069;52.242;20.900;2023-07-29T09:10:54;24.14;57.91
70676;DHT22;59069;52.242;20.900;2023-07-29T09:13:20;24.17;57.48
70676;DHT22;59069;52.242;20.900;2023-07-29T09:15:46;24.21;57.84
70676;DHT22;59069;52.242;20.900;2023-07-29T09:18:20;24.18;57.89
70676;DHT22;59069;52.242;20.900;2023-07-29T09:20:47;24.18;57.61
70676;DHT22;59069;52.242;20.900;2023-07-29T09:23:13;24.16;57.54
70676;DHT22;59069;52.242;20.900;2023-07-29T09:25:39;24.16;57.22
70676;DHT22;59069;52.242;20.900;2023-07-29T09:28:08;24.25;57.78
70676;DHT22;59069;52.242;20.900;2023-07-29T09:30:34;24.34;56.91
70676;DHT22;59069;52.242;20.900;2023-07-29T09:33:00;24.51;56.51
70676;DHT22;59069;52.242;20.900;2023-07-29T09:35:28;24.61;55.85
70676;DHT22;59069;52.242;20.900;2023-07-29T09:37:53;24.69;55.76
70676;DHT22;59069;52.242;20.900;2023-07-29T09:40:19;24.80;54.96
70676;DHT22;59069;52.242;20.900;2023-07-29T09:42:52;24.93;55.07
70676;DHT22;59069;52.242;20.900;2023-07-29T09:45:24;25.06;56.61
70676;DHT22;59069;52.242;20.900;2023-07-29T09:47:51;25.05;51.84
70676;DHT22;59069;52.242;20.900;2023-07-29T09:50:16;24.98;51.28
70676;DHT22;59069;52.242;20.900;2023-07-29T09:52:42;24.80;51.85
70676;DHT22;59069;52.242;20.900;2023-07-29T09:55:10;24.71;54.09
70676;DHT22;59069;52.242;20.900;2023-07-29T09:57:37;24.72;54.28
70676;DHT22;59069;52.242;20.900;2023-07-29T10:00:04;24.52;52.23
70676;DHT22;59069;52.242;20.900;2023-07-29T10:02:37;24.44;52.70
70676;DHT22;59069;52.242;20.900;2023-07-29T10:05:03;24.37;52.91
70676;DHT22;59069;52.242;20.900;2023-07-29T10:07:29;24.34;53.32
70676;DHT22;59069;52.242;20.900;2023-07-29T10:09:55;24.39;53.65
70676;DHT22;59069;52.242;20.900;2023-07-29T10:12:21;24.49;54.10
70676;DHT22;59069;52.242;20.900;2023-07-29T10:14:48;24.67;54.03
70676;DHT22;59069;52.242;20.900;2023-07-29T10:17:15;24.93;55.98
70676;DHT22;59069;52.242;20.900;2023-07-29T10:19:41;25.30;54.45
70676;DHT22;59069;52.242;20.900;2023-07-29T10:22:09;25.61;52.09
70676;DHT22;59069;52.242;20.900;2023-07-29T10:24:36;25.87;51.29
70676;DHT22;59069;52.242;20.900;2023-07-29T10:27:06;25.94;48.90
70676;DHT22;59069;52.242;20.900;2023-07-29T10:29:32;25.90;48.40
70676;DHT22;59069;52.242;20.900;2023-07-29T10:32:01;25.87;49.92
70676;DHT22;59069;52.242;20.900;2023-07-29T10:34:30;25.82;48.50
70676;DHT22;59069;52.242;20.900;2023-07-29T10:36:56;25.82;50.07
70676;DHT22;59069;52.242;20.900;2023-07-29T10:39:24;25.88;50.34
70676;DHT22;59069;52.242;20.900;2023-07-29T10:42:00;26.06;50.43
70676;DHT22;59069;52.242;20.900;2023-07-29T10:44:50;26.43;51.61
70676;DHT22;59069;52.242;20.900;2023-07-29T10:49:48;27.15;47.86
70676;DHT22;59069;52.242;20.900;2023-07-29T10:52:15;27.30;47.39
70676;DHT22;59069;52.242;20.900;2023-07-29T10:57:08;27.21;46.24
70676;DHT22;59069;52.242;20.900;2023-07-29T10:59:37;27.20;45.87
70676;DHT22;59069;52.242;20.900;2023-07-29T11:02:12;27.17;45.44
70676;DHT22;59069;52.242;20.900;2023-07-29T11:05:06;27.14;46.92
70676;DHT22;59069;52.242;20.900;2023-07-29T11:07:47;27.14;46.26
70676;DHT22;59069;52.242;20.900;2023-07-29T11:10:13;27.08;46.15
70676;DHT22;59069;52.242;20.900;2023-07-29T11:12:49;27.00;46.40
70676;DHT22;59069;52.242;20.900;2023-07-29T11:15:28;27.04;47.27
70676;DHT22;59069;52.242;20.900;2023-07-29T11:17:56;27.17;46.66
70676;DHT22;59069;52.242;20.900;2023-07-29T11:20:24;27.48;46.71
70676;DHT22;59069;52.242;20.900;2023-07-29T11:22:49;27.95;46.02
70676;DHT22;59069;52.242;20.900;2023-07-29T11:25:16;28.44;46.34
70676;DHT22;59069;52.242;20.900;2023-07-29T11:27:42;28.80;44.06
70676;DHT22;59069;52.242;20.900;2023-07-29T11:30:10;28.88;42.77
70676;DHT22;59069;52.242;20.900;2023-07-29T11:32:37;29.26;44.17
70676;DHT22;59069;52.242;20.900;2023-07-29T11:37:37;29.87;42.08
70676;DHT22;59069;52.242;20.900;2023-07-29T11:40:04;30.53;41.92
70676;DHT22;59069;52.242;20.900;2023-07-29T11:42:34;30.89;40.29
70676;DHT22;59069;52.242;20.900;2023-07-29T11:45:03;31.37;37.47
70676;DHT22;59069;52.242;20.900;2023-07-29T11:47:31;31.11;35.87
70676;DHT22;59069;52.242;20.900;2023-07-29T11:49:59;30.88;39.70
70676;DHT22;59069;52.242;20.900;2023-07-29T11:52:28;30.91;39.56
70676;DHT22;59069;52.242;20.900;2023-07-29T11:54:54;30.98;39.22
70676;DHT22;59069;52.242;20.900;2023-07-29T11:57:19;31.23;39.59
70676;DHT22;59069;52.242;20.900;2023-07-29T11:59:46;31.69;37.98
70676;DHT22;59069;52.242;20.900;2023-07-29T12:02:16;32.23;38.55
70676;DHT22;59069;52.242;20.900;2023-07-29T12:04:43;32.90;37.50
70676;DHT22;59069;52.242;20.900;2023-07-29T12:07:10;33.56;36.01
70676;DHT22;59069;52.242;20.900;2023-07-29T12:09:36;33.93;34.14
70676;DHT22;59069;52.242;20.900;2023-07-29T12:12:05;34.12;33.17
70676;DHT22;59069;52.242;20.900;2023-07-29T12:14:31;33.88;33.16
70676;DHT22;59069;52.242;20.900;2023-07-29T12:17:00;33.50;34.19
70676;DHT22;59069;52.242;20.900;2023-07-29T12:19:31;33.23;33.86
70676;DHT22;59069;52.242;20.900;2023-07-29T12:21:56;32.65;34.15
70676;DHT22;59069;52.242;20.900;2023-07-29T12:24:22;32.29;35.80
70676;DHT22;59069;52.242;20.900;2023-07-29T12:26:47;31.98;35.92
70676;DHT22;59069;52.242;20.900;2023-07-29T12:29:13;31.81;37.00
70676;DHT22;59069;52.242;20.900;2023-07-29T12:31:39;31.26;35.72
70676;DHT22;59069;52.242;20.900;2023-07-29T12:34:04;31.12;39.36
70676;DHT22;59069;52.242;20.900;2023-07-29T12:39:16;31.42;38.02
70676;DHT22;59069;52.242;20.900;2023-07-29T12:41:42;31.72;37.80
70676;DHT22;59069;52.242;20.900;2023-07-29T12:44:07;31.74;36.81
70676;DHT22;59069;52.242;20.900;2023-07-29T12:46:33;31.96;37.88
70676;DHT22;59069;52.242;20.900;2023-07-29T12:48:58;32.38;37.73
70676;DHT22;59069;52.242;20.900;2023-07-29T12:51:24;32.83;35.38
70676;DHT22;59069;52.242;20.900;2023-07-29T12:53:49;33.57;35.44
70676;DHT22;59069;52.242;20.900;2023-07-29T12:56:15;34.11;32.26
70676;DHT22;59069;52.242;20.900;2023-07-29T12:58:40;34.51;32.53
70676;DHT22;59069;52.242;20.900;2023-07-29T13:01:05;34.83;32.84
70676;DHT22;59069;52.242;20.900;2023-07-29T13:03:31;34.92;33.79
70676;DHT22;59069;52.242;20.900;2023-07-29T13:05:56;35.68;31.69
70676;DHT22;59069;52.242;20.900;2023-07-29T13:08:21;36.50;31.61
70676;DHT22;59069;52.242;20.900;2023-07-29T13:10:48;37.27;30.12
70676;DHT22;59069;52.242;20.900;2023-07-29T13:13:13;37.78;29.63
70676;DHT22;59069;52.242;20.900;2023-07-29T13:15:39;38.46;28.28
70676;DHT22;59069;52.242;20.900;2023-07-29T13:18:04;38.26;26.01
70676;DHT22;59069;52.242;20.900;2023-07-29T13:20:29;37.54;27.69
70676;DHT22;59069;52.242;20.900;2023-07-29T13:22:55;36.76;28.85
70676;DHT22;59069;52.242;20.900;2023-07-29T13:25:20;36.46;29.52
70676;DHT22;59069;52.242;20.900;2023-07-29T13:27:46;36.46;30.76
70676;DHT22;59069;52.242;20.900;2023-07-29T13:30:11;36.86;30.37
70676;DHT22;59069;52.242;20.900;2023-07-29T13:32:36;37.45;29.52
70676;DHT22;59069;52.242;20.900;2023-07-29T13:35:02;37.81;29.11
70676;DHT22;59069;52.242;20.900;2023-07-29T13:37:27;38.06;27.82
70676;DHT22;59069;52.242;20.900;2023-07-29T13:39:53;37.95;27.99
70676;DHT22;59069;52.242;20.900;2023-07-29T13:42:18;37.64;26.66
70676;DHT22;59069;52.242;20.900;2023-07-29T13:44:43;36.73;27.92
70676;DHT22;59069;52.242;20.900;2023-07-29T13:47:09;36.73;30.71
70676;DHT22;59069;52.242;20.900;2023-07-29T13:49:34;36.70;29.09
70676;DHT22;59069;52.242;20.900;2023-07-29T13:51:59;36.46;28.46
70676;DHT22;59069;52.242;20.900;2023-07-29T13:54:25;35.77;27.67
70676;DHT22;59069;52.242;20.900;2023-07-29T13:56:50;34.97;29.54
70676;DHT22;59069;52.242;20.900;2023-07-29T13:59:15;34.18;30.33
70676;DHT22;59069;52.242;20.900;2023-07-29T14:01:41;33.66;33.78
70676;DHT22;59069;52.242;20.900;2023-07-29T14:04:06;33.36;33.81
70676;DHT22;59069;52.242;20.900;2023-07-29T14:06:32;33.13;34.17
70676;DHT22;59069;52.242;20.900;2023-07-29T14:08:57;32.92;34.14
70676;DHT22;59069;52.242;20.900;2023-07-29T14:11:22;32.58;33.56
70676;DHT22;59069;52.242;20.900;2023-07-29T14:13:48;32.07;34.78
70676;DHT22;59069;52.242;20.900;2023-07-29T14:16:13;31.66;36.03
70676;DHT22;59069;52.242;20.900;2023-07-29T14:18:38;31.42;36.96
70676;DHT22;59069;52.242;20.900;2023-07-29T14:21:04;31.23;37.17
70676;DHT22;59069;52.242;20.900;2023-07-29T14:23:29;31.05;37.25
70676;DHT22;59069;52.242;20.900;2023-07-29T14:25:55;30.85;38.14
70676;DHT22;59069;52.242;20.900;2023-07-29T14:28:20;30.84;38.75
70676;DHT22;59069;52.242;20.900;2023-07-29T14:30:46;30.65;38.31
70676;DHT22;59069;52.242;20.900;2023-07-29T14:33:11;30.53;38.74
70676;DHT22;59069;52.242;20.900;2023-07-29T14:35:37;30.33;39.08
70676;DHT22;59069;52.242;20.900;2023-07-29T14:38:02;30.06;39.40
70676;DHT22;59069;52.242;20.900;2023-07-29T14:40:27;29.84;40.12
70676;DHT22;59069;52.242;20.900;2023-07-29T14:42:53;29.73;40.34
70676;DHT22;59069;52.242;20.900;2023-07-29T14:45:18;29.58;40.23
70676;DHT22;59069;52.242;20.900;2023-07-29T14:47:44;29.52;40.45
70676;DHT22;59069;52.242;20.900;2023-07-29T14:50:09;29.51;40.76
70676;DHT22;59069;52.242;20.900;2023-07-29T14:52:34;29.48;40.48
70676;DHT22;59069;52.242;20.900;2023-07-29T14:55:00;29.45;40.81
70676;DHT22;59069;52.242;20.900;2023-07-29T14:57:25;29.45;41.67
70676;DHT22;59069;52.242;20.900;2023-07-29T14:59:51;29.48;41.21
70676;DHT22;59069;52.242;20.900;2023-07-29T15:02:16;29.43;41.42
70676;DHT22;59069;52.242;20.900;2023-07-29T15:04:42;29.39;41.21
70676;DHT22;59069;52.242;20.900;2023-07-29T15:07:08;29.34;41.17
70676;DHT22;59069;52.242;20.900;2023-07-29T15:09:33;29.22;42.15
70676;DHT22;59069;52.242;20.900;2023-07-29T15:11:58;29.22;42.80
70676;DHT22;59069;52.242;20.900;2023-07-29T15:14:24;29.25;42.78
70676;DHT22;59069;52.242;20.900;2023-07-29T15:16:50;29.36;43.06
70676;DHT22;59069;52.242;20.900;2023-07-29T15:19:15;29.43;42.56
70676;DHT22;59069;52.242;20.900;2023-07-29T15:21:40;29.41;42.15